createdAt,value
2019-05-17T00:01:30.522Z,13.60
2019-05-17T00:04:00.754Z,13.50
2019-05-17T00:06:30.955Z,13.50
2019-05-17T00:09:01.163Z,13.40
2019-05-17T00:11:32.948Z,13.30
2019-05-17T00:14:03.218Z,13.50
2019-05-17T00:16:33.413Z,13.70
2019-05-17T00:19:03.742Z,13.70
2019-05-17T00:21:33.995Z,13.70
2019-05-17T00:24:06.480Z,13.70
2019-05-17T00:26:36.386Z,13.60
2019-05-17T00:29:07.819Z,13.40
2019-05-17T00:31:38.079Z,13.20
2019-05-17T00:34:08.459Z,13.20
2019-05-17T00:36:40.194Z,13.10
2019-05-17T00:39:10.446Z,13.10
2019-05-17T00:41:40.711Z,12.90
2019-05-17T00:44:31.642Z,12.90
2019-05-17T00:47:01.875Z,12.80
2019-05-17T00:49:32.311Z,12.60
2019-05-17T00:52:02.598Z,12.50
2019-05-17T00:54:32.811Z,12.70
2019-05-17T00:57:02.998Z,12.70
2019-05-17T00:59:33.212Z,12.80
2019-05-17T01:02:03.406Z,12.70
2019-05-17T01:04:33.883Z,12.70
2019-05-17T01:07:06.801Z,12.80
2019-05-17T01:09:36.850Z,12.70
2019-05-17T01:12:07.560Z,12.70
2019-05-17T01:15:16.608Z,12.80
2019-05-17T01:17:47.330Z,12.70
2019-05-17T01:20:17.493Z,12.60
2019-05-17T01:22:47.891Z,12.60
2019-05-17T01:25:18.104Z,12.70
2019-05-17T01:27:48.378Z,12.70
2019-05-17T01:30:18.655Z,12.90
2019-05-17T01:32:48.859Z,12.90
2019-05-17T01:35:19.134Z,13.10
2019-05-17T01:37:49.323Z,13.20
2019-05-17T01:40:19.542Z,13.10
2019-05-17T01:42:49.732Z,12.80
2019-05-17T01:45:57.444Z,12.70
2019-05-17T01:48:27.803Z,12.80
2019-05-17T01:50:58.024Z,12.60
2019-05-17T01:53:28.224Z,12.60
2019-05-17T01:55:58.446Z,12.60
2019-05-17T01:58:28.643Z,12.50
2019-05-17T02:00:58.866Z,12.60
2019-05-17T02:03:29.063Z,12.50
2019-05-17T02:05:59.276Z,12.60
2019-05-17T02:08:29.660Z,12.50
2019-05-17T02:10:59.886Z,12.50
2019-05-17T02:13:30.144Z,12.50
2019-05-17T02:16:00.394Z,12.40
2019-05-17T02:18:31.485Z,12.40
2019-05-17T02:21:01.707Z,12.50
2019-05-17T02:23:31.930Z,12.30
2019-05-17T02:26:02.181Z,12.10
2019-05-17T02:28:32.449Z,12.10
2019-05-17T02:31:03.435Z,12.00
2019-05-17T02:33:34.040Z,11.90
2019-05-17T02:36:04.235Z,12.00
2019-05-17T02:38:34.522Z,12.00
2019-05-17T02:41:04.731Z,12.00
2019-05-17T02:43:35.054Z,12.20
2019-05-17T02:46:05.253Z,11.80
2019-05-17T02:48:35.555Z,11.90
2019-05-17T02:51:05.755Z,11.90
2019-05-17T02:53:35.997Z,11.90
2019-05-17T02:56:06.204Z,12.00
2019-05-17T02:58:36.503Z,11.80
2019-05-17T03:01:06.700Z,11.60
2019-05-17T03:03:37.080Z,11.70
2019-05-17T03:06:07.323Z,11.70
2019-05-17T03:08:37.561Z,11.60
2019-05-17T03:11:07.775Z,11.50
2019-05-17T03:13:37.999Z,11.60
2019-05-17T03:16:08.199Z,11.70
2019-05-17T03:18:38.442Z,11.60
2019-05-17T03:21:08.631Z,11.60
2019-05-17T03:23:38.881Z,11.80
2019-05-17T03:26:12.767Z,11.70
2019-05-17T03:28:42.703Z,11.90
2019-05-17T03:31:16.640Z,11.80
2019-05-17T03:33:46.278Z,11.70
2019-05-17T03:36:17.862Z,11.70
2019-05-17T03:38:48.603Z,11.40
2019-05-17T03:41:24.826Z,11.40
2019-05-17T03:43:53.266Z,11.40
2019-05-17T03:46:23.956Z,11.40
2019-05-17T03:48:54.167Z,11.60
2019-05-17T03:51:24.376Z,11.80
2019-05-17T03:53:54.654Z,11.80
2019-05-17T03:56:26.214Z,12.00
2019-05-17T03:58:56.456Z,12.10
2019-05-17T04:01:27.027Z,12.20
2019-05-17T04:03:57.289Z,12.40
2019-05-17T04:06:27.499Z,12.20
2019-05-17T04:08:58.100Z,12.10
2019-05-17T04:11:32.900Z,12.00
2019-05-17T04:14:02.925Z,12.10
2019-05-17T04:16:33.943Z,12.20
2019-05-17T04:19:04.345Z,12.20
2019-05-17T04:21:34.657Z,12.30
2019-05-17T04:24:04.958Z,12.30
2019-05-17T04:26:35.164Z,12.40
2019-05-17T04:29:05.405Z,12.60
2019-05-17T04:31:35.753Z,12.60
2019-05-17T04:34:05.967Z,12.60
2019-05-17T04:36:36.238Z,12.40
2019-05-17T04:39:07.794Z,12.40
2019-05-17T04:41:45.554Z,12.40
2019-05-17T04:44:12.674Z,12.50
2019-05-17T04:47:02.757Z,12.50
2019-05-17T04:49:33.071Z,12.40
2019-05-17T04:52:03.913Z,12.30
2019-05-17T04:54:34.315Z,12.40
2019-05-17T04:57:04.533Z,12.20
2019-05-17T04:59:34.923Z,12.20
2019-05-17T05:02:05.191Z,12.30
2019-05-17T05:04:38.499Z,12.50
2019-05-17T05:07:07.306Z,12.60
2019-05-17T05:09:37.593Z,12.80
2019-05-17T05:12:07.795Z,12.80
2019-05-17T05:14:38.022Z,12.80
2019-05-17T05:17:08.221Z,13.00
2019-05-17T05:19:38.444Z,12.90
2019-05-17T05:22:08.813Z,13.00
2019-05-17T05:24:39.034Z,13.00
2019-05-17T05:27:11.543Z,13.00
2019-05-17T05:29:41.658Z,13.10
2019-05-17T05:32:11.965Z,13.30
2019-05-17T05:34:42.918Z,13.40
2019-05-17T05:37:14.165Z,13.40
2019-05-17T05:39:44.514Z,13.20
2019-05-17T05:42:14.731Z,13.10
2019-05-17T05:44:44.991Z,13.20
2019-05-17T05:47:15.519Z,13.30
2019-05-17T05:49:45.812Z,13.80
2019-05-17T05:52:16.103Z,14.10
2019-05-17T05:54:46.298Z,14.70
2019-05-17T05:57:16.630Z,15.40
2019-05-17T05:59:46.823Z,15.80
2019-05-17T06:02:17.261Z,15.40
2019-05-17T06:04:47.458Z,15.50
2019-05-17T06:07:17.682Z,16.10
2019-05-17T06:09:48.300Z,16.40
2019-05-17T06:12:23.708Z,16.20
2019-05-17T06:14:52.346Z,16.00
2019-05-17T06:17:22.383Z,15.70
2019-05-17T06:19:52.652Z,15.10
2019-05-17T06:22:22.888Z,15.00
2019-05-17T06:24:53.219Z,14.90
2019-05-17T06:27:23.455Z,14.80
2019-05-17T06:29:53.678Z,14.60
2019-05-17T06:32:25.197Z,14.40
2019-05-17T06:34:55.395Z,14.90
2019-05-17T06:37:25.623Z,15.60
2019-05-17T06:39:55.896Z,15.70
2019-05-17T06:42:38.369Z,16.00
2019-05-17T06:44:58.024Z,16.30
2019-05-17T06:47:28.234Z,16.40
2019-05-17T06:49:58.423Z,16.20
2019-05-17T06:52:28.632Z,16.60
2019-05-17T06:55:02.629Z,17.30
2019-05-17T06:57:32.922Z,18.50
2019-05-17T07:00:09.282Z,20.30
2019-05-17T07:02:36.219Z,21.20
2019-05-17T07:05:09.909Z,21.40
2019-05-17T07:07:40.613Z,21.40
2019-05-17T07:10:11.798Z,21.90
2019-05-17T07:12:54.855Z,21.50
2019-05-17T07:15:14.482Z,20.90
2019-05-17T07:17:44.695Z,19.90
2019-05-17T07:20:14.915Z,18.90
2019-05-17T07:22:45.131Z,18.10
2019-05-17T07:25:15.335Z,17.70
2019-05-17T07:27:46.067Z,17.70
2019-05-17T07:30:16.449Z,17.90
2019-05-17T07:32:46.641Z,17.70
2019-05-17T07:35:16.855Z,18.10
2019-05-17T07:37:47.118Z,18.10
2019-05-17T07:40:19.686Z,18.30
2019-05-17T07:42:50.075Z,18.60
2019-05-17T07:45:20.566Z,18.60
2019-05-17T07:48:31.635Z,18.80
2019-05-17T07:51:02.437Z,18.60
2019-05-17T07:53:32.706Z,18.00
2019-05-17T07:56:02.918Z,17.70
2019-05-17T07:58:33.111Z,17.50
2019-05-17T08:01:03.383Z,17.10
2019-05-17T08:03:33.641Z,16.80
2019-05-17T08:06:03.864Z,16.80
2019-05-17T08:08:34.063Z,16.90
2019-05-17T08:11:04.310Z,16.70
2019-05-17T08:13:34.491Z,16.20
2019-05-17T08:16:04.774Z,16.30
2019-05-17T08:18:35.051Z,16.60
2019-05-17T08:21:05.271Z,17.20
2019-05-17T08:23:35.467Z,17.50
2019-05-17T08:26:06.741Z,17.10
2019-05-17T08:28:37.026Z,17.30
2019-05-17T08:31:09.753Z,17.90
2019-05-17T08:33:40.629Z,18.00
2019-05-17T08:36:12.369Z,17.90
2019-05-17T08:38:42.586Z,17.80
2019-05-17T08:41:12.772Z,18.00
2019-05-17T08:43:46.999Z,17.50
2019-05-17T08:46:14.862Z,17.00
2019-05-17T08:48:45.131Z,17.20
2019-05-17T08:51:15.314Z,17.10
2019-05-17T08:53:45.892Z,16.90
2019-05-17T08:56:16.066Z,16.90
2019-05-17T08:58:46.283Z,17.10
2019-05-17T09:01:16.617Z,16.90
2019-05-17T09:03:46.823Z,16.70
2019-05-17T09:06:17.007Z,16.70
2019-05-17T09:08:49.802Z,17.10
2019-05-17T09:11:20.162Z,17.20
2019-05-17T09:13:57.972Z,17.30
2019-05-17T09:16:22.430Z,17.30
2019-05-17T09:18:52.753Z,17.50
2019-05-17T09:21:23.028Z,17.50
2019-05-17T09:23:53.313Z,17.30
2019-05-17T09:26:23.487Z,17.30
2019-05-17T09:28:53.756Z,17.00
2019-05-17T09:31:25.225Z,16.90
2019-05-17T09:33:55.447Z,16.70
2019-05-17T09:36:25.658Z,16.20
2019-05-17T09:38:55.879Z,16.40
2019-05-17T09:41:26.064Z,16.60
2019-05-17T09:44:09.662Z,16.90
2019-05-17T09:46:30.208Z,16.70
2019-05-17T09:49:01.408Z,16.70
2019-05-17T09:51:31.824Z,16.60
2019-05-17T09:54:02.069Z,16.60
2019-05-17T09:56:32.403Z,16.80
2019-05-17T09:59:02.694Z,16.30
2019-05-17T10:01:32.921Z,15.90
2019-05-17T10:04:03.138Z,15.90
2019-05-17T10:06:33.419Z,15.90
2019-05-17T10:09:04.675Z,16.40
2019-05-17T10:11:36.531Z,17.00
2019-05-17T10:14:10.112Z,17.10
2019-05-17T10:16:39.496Z,17.10
2019-05-17T10:19:09.770Z,16.90
2019-05-17T10:21:40.053Z,17.10
2019-05-17T10:24:10.299Z,17.00
2019-05-17T10:26:42.132Z,17.00
2019-05-17T10:29:12.331Z,16.90
2019-05-17T10:31:42.514Z,16.60
2019-05-17T10:34:12.791Z,16.60
2019-05-17T10:36:42.984Z,16.90
2019-05-17T10:39:13.191Z,17.10
2019-05-17T10:41:43.384Z,17.60
2019-05-17T10:44:13.605Z,18.10
2019-05-17T10:46:43.779Z,18.40
2019-05-17T10:49:14.633Z,18.70
2019-05-17T10:51:44.883Z,18.70
2019-05-17T10:54:15.083Z,18.70
2019-05-17T10:56:45.271Z,18.00
2019-05-17T10:59:15.487Z,17.60
2019-05-17T11:01:45.672Z,17.40
2019-05-17T11:04:16.111Z,17.40
2019-05-17T11:06:46.289Z,17.10
2019-05-17T11:09:16.487Z,16.70
2019-05-17T11:11:46.667Z,16.80
2019-05-17T11:14:16.879Z,16.70
2019-05-17T11:16:47.066Z,16.60
2019-05-17T11:19:17.431Z,16.60
2019-05-17T11:21:47.652Z,16.80
2019-05-17T11:24:17.908Z,16.90
2019-05-17T11:26:48.296Z,17.30
2019-05-17T11:29:18.558Z,17.10
2019-05-17T11:31:48.875Z,17.40
2019-05-17T11:34:19.092Z,17.30
2019-05-17T11:36:49.299Z,17.50
2019-05-17T11:39:19.490Z,17.50
2019-05-17T11:41:49.718Z,17.30
2019-05-17T11:44:19.909Z,17.30
2019-05-17T11:46:50.151Z,17.20
2019-05-17T11:49:35.450Z,17.30
2019-05-17T11:52:05.778Z,17.30
2019-05-17T11:54:35.960Z,17.20
2019-05-17T11:57:06.203Z,17.40
2019-05-17T11:59:36.380Z,17.50
2019-05-17T12:02:06.650Z,17.60
2019-05-17T12:04:55.091Z,18.00
2019-05-17T12:07:25.387Z,18.40
2019-05-17T12:09:55.576Z,18.80
2019-05-17T12:12:25.781Z,18.60
2019-05-17T12:14:56.157Z,18.60
2019-05-17T12:17:26.374Z,18.80
2019-05-17T12:19:56.557Z,19.00
2019-05-17T12:22:26.760Z,18.50
2019-05-17T12:24:56.939Z,18.60
2019-05-17T12:27:27.139Z,18.80
2019-05-17T12:29:57.395Z,18.70
2019-05-17T12:32:27.636Z,18.90
2019-05-17T12:34:57.848Z,18.80
2019-05-17T12:37:28.062Z,18.20
2019-05-17T12:39:58.253Z,18.60
2019-05-17T12:42:28.475Z,18.70
2019-05-17T12:44:58.667Z,19.10
2019-05-17T12:47:28.880Z,19.50
2019-05-17T12:49:59.759Z,19.80
2019-05-17T12:52:30.060Z,20.10
2019-05-17T12:55:00.308Z,20.40
2019-05-17T12:57:30.507Z,20.60
2019-05-17T13:00:00.709Z,20.30
2019-05-17T13:02:31.058Z,20.20
2019-05-17T13:05:06.331Z,19.90
2019-05-17T13:07:36.527Z,19.30
2019-05-17T13:10:06.834Z,19.20
2019-05-17T13:12:37.158Z,19.30
2019-05-17T13:15:07.549Z,19.10
2019-05-17T13:17:37.760Z,19.40
2019-05-17T13:20:08.289Z,19.10
2019-05-17T13:22:39.624Z,19.00
2019-05-17T13:25:09.999Z,18.80
2019-05-17T13:27:40.356Z,18.40
2019-05-17T13:30:11.508Z,18.20
2019-05-17T13:32:41.762Z,18.00
2019-05-17T13:35:12.327Z,17.60
2019-05-17T13:37:42.556Z,17.50
2019-05-17T13:40:13.716Z,17.30
2019-05-17T13:42:43.444Z,17.20
2019-05-17T13:45:15.029Z,17.30
2019-05-17T13:47:45.344Z,17.20
2019-05-17T13:50:15.610Z,17.40
2019-05-17T13:52:45.830Z,17.80
2019-05-17T13:55:16.093Z,17.90
2019-05-17T13:57:46.698Z,17.90
2019-05-17T14:00:17.593Z,17.70
2019-05-17T14:02:47.834Z,17.80
2019-05-17T14:05:18.214Z,17.80
2019-05-17T14:07:48.528Z,17.80
2019-05-17T14:10:27.710Z,17.50
2019-05-17T14:12:54.990Z,17.20
2019-05-17T14:15:33.293Z,17.40
2019-05-17T14:18:03.542Z,17.50
2019-05-17T14:20:33.795Z,17.60
2019-05-17T14:26:31.404Z,17.50
2019-05-17T14:29:18.969Z,17.20
2019-05-17T14:32:07.907Z,17.20
2019-05-17T14:34:38.883Z,17.10
2019-05-17T14:37:09.476Z,17.30
2019-05-17T14:39:39.708Z,17.50
2019-05-17T14:42:09.907Z,17.60
2019-05-17T14:44:42.928Z,17.80
2019-05-17T14:47:13.164Z,17.90
2019-05-17T14:49:43.523Z,17.60
2019-05-17T14:52:13.781Z,17.50
2019-05-17T14:54:44.267Z,17.40
2019-05-17T14:57:14.455Z,17.50
2019-05-17T14:59:44.739Z,17.30
2019-05-17T15:02:14.926Z,17.20
2019-05-17T15:04:45.151Z,17.10
2019-05-17T15:07:15.419Z,17.10
2019-05-17T15:09:45.711Z,16.90
2019-05-17T15:12:27.834Z,16.90
2019-05-17T15:14:47.951Z,16.80
2019-05-17T15:17:18.215Z,16.70
2019-05-17T15:19:51.303Z,16.60
2019-05-17T15:22:21.383Z,16.60
2019-05-17T15:24:53.292Z,16.60
2019-05-17T15:27:23.569Z,16.70
2019-05-17T15:29:53.799Z,16.90
2019-05-17T15:32:23.998Z,16.90
2019-05-17T15:34:54.354Z,16.90
2019-05-17T15:37:24.580Z,16.70
2019-05-17T15:39:54.849Z,16.70
2019-05-17T15:42:25.067Z,16.40
2019-05-17T15:44:55.299Z,16.40
2019-05-17T15:47:25.501Z,16.30
2019-05-17T15:49:55.753Z,16.20
2019-05-17T15:52:27.364Z,16.30
2019-05-17T15:54:58.126Z,16.50
2019-05-17T15:57:28.180Z,16.40
2019-05-17T15:59:58.569Z,16.50
2019-05-17T16:02:28.937Z,16.50
2019-05-17T16:05:06.993Z,16.30
2019-05-17T16:07:37.331Z,16.40
2019-05-17T16:10:07.921Z,16.50
2019-05-17T16:12:39.183Z,16.80
2019-05-17T16:15:09.494Z,16.80
2019-05-17T16:17:39.717Z,17.20
2019-05-17T16:20:10.166Z,17.20
2019-05-17T16:22:40.453Z,17.40
2019-05-17T16:25:10.730Z,17.50
2019-05-17T16:27:42.129Z,17.40
2019-05-17T16:30:12.361Z,17.40
2019-05-17T16:32:42.579Z,17.30
2019-05-17T16:35:21.122Z,17.20
2019-05-17T16:37:51.639Z,17.00
2019-05-17T16:40:22.020Z,16.90
2019-05-17T16:42:52.330Z,16.80
2019-05-17T16:45:22.676Z,16.60
2019-05-17T16:47:52.887Z,16.60
2019-05-17T16:50:23.130Z,16.70
2019-05-17T16:53:04.969Z,16.30
2019-05-17T16:55:26.121Z,15.90
2019-05-17T16:57:57.700Z,15.60
2019-05-17T17:00:33.019Z,15.20
2019-05-17T17:03:04.395Z,15.00
2019-05-17T17:05:34.737Z,15.10
2019-05-17T17:08:05.793Z,15.10
2019-05-17T17:10:36.145Z,15.20
2019-05-17T17:13:06.563Z,14.90
2019-05-17T17:15:36.820Z,14.80
2019-05-17T17:18:07.116Z,14.80
2019-05-17T17:20:46.651Z,14.70
2019-05-17T17:23:16.984Z,14.90
2019-05-17T17:25:47.182Z,15.10
2019-05-17T17:28:17.392Z,15.10
2019-05-17T17:30:47.791Z,15.30
2019-05-17T17:33:18.148Z,15.40
2019-05-17T17:36:15.605Z,15.20
2019-05-17T17:38:45.889Z,15.10
2019-05-17T17:41:16.133Z,14.90
2019-05-17T17:43:57.893Z,14.80
2019-05-17T17:46:18.307Z,14.70
2019-05-17T17:48:48.582Z,14.60
2019-05-17T17:51:18.887Z,14.50
2019-05-17T17:53:49.082Z,14.40
2019-05-17T17:56:19.301Z,14.50
2019-05-17T17:58:49.757Z,14.70
2019-05-17T18:01:19.985Z,14.70
2019-05-17T18:03:50.187Z,14.70
2019-05-17T18:06:20.402Z,14.90
2019-05-17T18:08:50.587Z,14.90
2019-05-17T18:11:20.890Z,14.90
2019-05-17T18:13:51.216Z,14.80
2019-05-17T18:16:21.433Z,14.80
2019-05-17T18:18:51.620Z,14.70
2019-05-17T18:21:21.914Z,14.80
2019-05-17T18:23:52.102Z,14.70
2019-05-17T18:26:22.324Z,14.80
2019-05-17T18:28:52.591Z,14.80
2019-05-17T18:31:22.874Z,15.10
2019-05-17T18:33:53.077Z,14.80
2019-05-17T18:36:23.406Z,14.70
2019-05-17T18:38:53.608Z,14.70
2019-05-17T18:41:23.832Z,14.70
2019-05-17T18:43:54.059Z,14.40
2019-05-17T18:46:24.337Z,14.50
2019-05-17T18:48:54.594Z,14.20
2019-05-17T18:51:36.726Z,14.20
2019-05-17T18:54:07.011Z,14.00
2019-05-17T18:56:37.213Z,14.00
2019-05-17T18:59:07.487Z,14.20
2019-05-17T19:01:37.679Z,14.10
2019-05-17T19:04:07.970Z,14.10
2019-05-17T19:07:05.692Z,14.10
2019-05-17T19:09:39.355Z,14.20
2019-05-17T19:12:09.874Z,14.10
2019-05-17T19:14:43.021Z,14.00
2019-05-17T19:17:12.064Z,14.10
2019-05-17T19:19:42.382Z,14.10
2019-05-17T19:22:12.655Z,14.20
2019-05-17T19:24:42.928Z,14.20
2019-05-17T19:27:13.134Z,14.10
2019-05-17T19:29:43.533Z,14.20
2019-05-17T19:32:13.906Z,14.30
2019-05-17T19:34:44.259Z,14.40
2019-05-17T19:37:14.508Z,14.20
2019-05-17T19:39:44.894Z,14.20
2019-05-17T19:42:15.086Z,14.20
2019-05-17T19:44:58.121Z,14.30
2019-05-17T19:47:17.348Z,14.40
2019-05-17T19:49:47.575Z,14.20
2019-05-17T19:52:17.951Z,14.30
2019-05-17T19:54:48.241Z,14.60
2019-05-17T19:57:18.515Z,14.70
2019-05-17T19:59:48.757Z,14.70
2019-05-17T20:02:19.016Z,14.80
2019-05-17T20:04:49.321Z,14.80
2019-05-17T20:07:19.538Z,15.00
2019-05-17T20:09:49.788Z,15.10
2019-05-17T20:12:20.007Z,14.80
2019-05-17T20:14:50.307Z,15.00
2019-05-17T20:17:20.595Z,14.90
2019-05-17T20:19:50.880Z,14.70
2019-05-17T20:22:21.114Z,14.60
2019-05-17T20:24:51.333Z,14.30
2019-05-17T20:27:21.665Z,14.60
2019-05-17T20:29:52.054Z,14.40
2019-05-17T20:32:22.343Z,14.60
2019-05-17T20:34:52.713Z,14.60
2019-05-17T20:37:35.933Z,14.70
2019-05-17T20:40:07.681Z,14.70
2019-05-17T20:42:38.050Z,14.50
2019-05-17T20:45:12.283Z,14.40
2019-05-17T20:47:42.495Z,14.50
2019-05-17T20:50:12.799Z,14.40
2019-05-17T20:52:50.847Z,14.50
2019-05-17T20:55:23.235Z,14.60
2019-05-17T20:57:54.503Z,14.50
2019-05-17T21:00:24.247Z,14.50
2019-05-17T21:02:54.350Z,14.50
2019-05-17T21:05:24.615Z,14.30
2019-05-17T21:07:56.453Z,14.30
2019-05-17T21:10:27.384Z,14.40
2019-05-17T21:13:00.672Z,14.60
2019-05-17T21:15:30.868Z,14.70
2019-05-17T21:18:01.283Z,14.90
2019-05-17T21:20:31.473Z,15.00
2019-05-17T21:23:01.716Z,15.20
2019-05-17T21:25:31.914Z,15.30
2019-05-17T21:28:02.176Z,15.30
2019-05-17T21:30:32.536Z,15.40
2019-05-17T21:33:03.037Z,15.40
2019-05-17T21:35:33.352Z,15.40
2019-05-17T21:38:07.319Z,15.40
2019-05-17T21:40:37.522Z,15.40
2019-05-17T21:43:07.999Z,15.30
2019-05-17T21:45:38.237Z,15.30
2019-05-17T21:48:08.505Z,15.30
2019-05-17T21:50:58.248Z,15.40
2019-05-17T21:53:28.571Z,15.40
2019-05-17T21:55:58.918Z,15.40
2019-05-17T21:58:29.135Z,15.40
2019-05-17T22:01:08.586Z,15.50
2019-05-17T22:03:39.016Z,15.50
2019-05-17T22:06:09.354Z,15.60
2019-05-17T22:08:41.341Z,15.60
2019-05-17T22:11:11.950Z,15.50
2019-05-17T22:13:42.208Z,15.50
2019-05-17T22:16:19.606Z,15.60
2019-05-17T22:18:44.379Z,15.60
2019-05-17T22:21:14.678Z,15.60
2019-05-17T22:24:03.253Z,15.50
2019-05-17T22:26:33.899Z,15.50
2019-05-17T22:29:04.161Z,15.50
2019-05-17T22:31:34.779Z,15.60
2019-05-17T22:34:04.983Z,15.60
2019-05-17T22:36:35.297Z,15.60
2019-05-17T22:39:06.412Z,15.50
2019-05-17T22:41:36.634Z,15.40
2019-05-17T22:44:06.822Z,15.30
2019-05-17T22:46:37.257Z,15.30
2019-05-17T22:49:07.586Z,15.20
2019-05-17T22:51:37.867Z,15.30
2019-05-17T22:54:08.275Z,15.40
2019-05-17T22:56:40.426Z,15.50
2019-05-17T22:59:10.626Z,15.20
2019-05-17T23:01:40.943Z,15.10
2019-05-17T23:04:11.216Z,14.90
2019-05-17T23:06:41.491Z,14.80
2019-05-17T23:09:11.812Z,14.80
2019-05-17T23:11:42.035Z,14.90
2019-05-17T23:14:12.392Z,15.10
2019-05-17T23:16:51.133Z,15.10
2019-05-17T23:19:14.607Z,15.10
2019-05-17T23:21:44.802Z,15.10
2019-05-17T23:24:30.684Z,14.90
2019-05-17T23:27:00.879Z,15.10
2019-05-17T23:29:31.375Z,15.20
2019-05-17T23:32:01.583Z,15.00
2019-05-17T23:34:31.868Z,15.10
2019-05-17T23:37:02.067Z,15.10
2019-05-17T23:39:32.289Z,15.00
2019-05-17T23:42:02.497Z,15.00
2019-05-17T23:44:32.784Z,14.90
2019-05-17T23:47:07.263Z,15.00
2019-05-17T23:49:35.003Z,14.90
2019-05-17T23:52:05.246Z,14.90
2019-05-17T23:54:35.532Z,14.90
2019-05-17T23:57:05.751Z,14.90
2019-05-17T23:59:35.939Z,14.90
